Ny info om parkering ved Klubbhytta PDF Skriv ut E-post
Skrevet av Per Norgaard   
torsdag 17. desember 2015 11:11

Styret i klubben ønsker å korrigere/presisere følgende: All parkering ved Klubbhytta skal kun skje ifm klubbaktivitet. Avinor vil ikke akseptere privat parkering som ikke er klubbrelatert. Misbruk vil utløse bøter, og kan medføre oppsigelse av leieforholdet.

 

 
«StartForrige12345678NesteSiste»

Side 8 av 8
 
METAR
2021/09/17 07:50 ENCN 170750Z 03015KT 9999 SCT029 11/05 Q1018
TAF
2021/09/17 06:36 TAF TAF ENCN 170500Z 1706/1715 03010KT 9999 FEW020 BKN040 TEMPO 1711/1712 05015G25KT
LN-KFK
Operativ VFR-natt
VFR dag
06:21 - 20:22
Brannvakt
Inaktiv
Banner
Banner
Banner
Banner
Banner